createdAt,value
2023-04-08T00:05:10.789Z,83.88
2023-04-08T00:16:19.508Z,84.21
2023-04-08T00:27:28.674Z,84.17
2023-04-08T00:38:33.614Z,84.33
2023-04-08T00:49:06.728Z,84.26
2023-04-08T00:59:41.975Z,83.83
2023-04-08T01:11:24.038Z,84.45
2023-04-08T01:22:48.350Z,84.56
2023-04-08T01:34:13.242Z,84.85
2023-04-08T01:45:38.001Z,85.09
2023-04-08T01:56:51.589Z,85.41
2023-04-08T02:08:15.903Z,85.87
2023-04-08T02:19:37.682Z,85.96
2023-04-08T02:31:02.085Z,86.24
2023-04-08T02:42:26.430Z,86.17
2023-04-08T02:53:50.711Z,85.54
2023-04-08T03:05:07.639Z,86.44
2023-04-08T03:16:32.065Z,86.33
2023-04-08T03:27:56.427Z,86.00
2023-04-08T03:39:20.943Z,85.97
2023-04-08T03:50:45.903Z,86.26
2023-04-08T04:02:10.612Z,85.77
2023-04-08T04:13:27.370Z,85.96
2023-04-08T04:24:46.378Z,86.04
2023-04-08T04:36:10.892Z,86.07
2023-04-08T04:47:35.448Z,85.76
2023-04-08T04:58:59.990Z,86.06
2023-04-08T05:10:24.470Z,86.72
2023-04-08T05:21:48.870Z,86.25
2023-04-08T05:33:02.439Z,86.01
2023-04-08T05:44:26.997Z,86.17
2023-04-08T05:55:57.279Z,85.54
2023-04-08T06:07:22.688Z,85.20
2023-04-08T06:18:48.536Z,84.81
2023-04-08T06:30:13.654Z,83.97
2023-04-08T06:41:37.955Z,83.15
2023-04-08T06:53:03.710Z,80.30
2023-04-08T07:04:26.794Z,77.47
2023-04-08T07:15:41.977Z,75.07
2023-04-08T07:27:06.605Z,70.96
2023-04-08T07:39:08.315Z,67.02
2023-04-08T07:50:34.323Z,66.57
2023-04-08T08:02:22.250Z,65.16
2023-04-08T08:13:23.075Z,65.43
2023-04-08T08:24:49.471Z,66.38
2023-04-08T08:36:02.835Z,66.24
2023-04-08T08:47:25.894Z,66.27
2023-04-08T08:58:45.619Z,65.83
2023-04-08T09:10:09.456Z,64.03
2023-04-08T09:21:25.923Z,64.20
2023-04-08T09:32:39.957Z,64.12
2023-04-08T09:43:52.492Z,63.27
2023-04-08T09:54:54.770Z,63.54
2023-04-08T10:05:32.583Z,63.93
2023-04-08T10:16:56.507Z,64.27
2023-04-08T10:28:33.309Z,64.36
2023-04-08T10:40:09.612Z,64.19
2023-04-08T10:51:16.910Z,63.79
2023-04-08T11:12:45.339Z,64.30
2023-04-08T11:22:49.032Z,64.25
2023-04-08T11:32:52.457Z,63.54
2023-04-08T11:42:55.973Z,63.90
2023-04-08T11:52:59.801Z,63.91
2023-04-08T12:03:03.522Z,65.19
2023-04-08T12:13:07.356Z,65.17
2023-04-08T12:23:10.557Z,66.00
2023-04-08T12:33:14.617Z,66.31
2023-04-08T12:43:18.081Z,65.89
2023-04-08T12:53:21.816Z,66.31
2023-04-08T13:03:25.327Z,68.01
2023-04-08T13:13:28.803Z,69.14
2023-04-08T13:23:32.189Z,70.32
2023-04-08T13:34:09.484Z,70.82
2023-04-08T13:44:17.317Z,70.63
2023-04-08T13:54:22.797Z,70.76
2023-04-08T14:04:29.684Z,70.72
2023-04-08T14:14:39.036Z,71.21
2023-04-08T14:25:21.517Z,71.38
2023-04-08T14:35:24.786Z,71.71
2023-04-08T14:45:28.496Z,71.61
2023-04-08T14:55:33.641Z,71.50
2023-04-08T15:05:40.585Z,72.13
2023-04-08T15:16:19.403Z,72.17
2023-04-08T15:26:23.108Z,72.05
2023-04-08T15:36:27.763Z,71.96
2023-04-08T15:46:31.473Z,71.96
2023-04-08T15:56:35.064Z,71.81
2023-04-08T16:06:41.989Z,71.99
2023-04-08T16:16:45.697Z,72.33
2023-04-08T16:26:49.455Z,72.79
2023-04-08T16:36:53.764Z,72.96
2023-04-08T16:46:57.079Z,73.55
2023-04-08T16:57:00.562Z,73.77
2023-04-08T17:07:04.223Z,74.23
2023-04-08T17:17:07.924Z,74.77
2023-04-08T17:27:11.425Z,75.60
2023-04-08T17:37:14.552Z,75.96
2023-04-08T17:47:17.786Z,76.26
2023-04-08T17:57:21.570Z,76.56
2023-04-08T18:07:25.085Z,76.60
2023-04-08T18:17:28.387Z,76.57
2023-04-08T18:28:03.540Z,77.30
2023-04-08T18:38:07.109Z,77.97
2023-04-08T18:48:12.609Z,78.56
2023-04-08T18:58:16.633Z,78.97
2023-04-08T19:08:19.845Z,79.17
2023-04-08T19:18:23.464Z,79.10
2023-04-08T19:28:26.753Z,79.06
2023-04-08T19:38:30.834Z,79.32
2023-04-08T19:48:34.933Z,79.63
2023-04-08T19:58:38.315Z,79.66
2023-04-08T20:08:42.981Z,79.68
2023-04-08T20:18:46.309Z,79.62
2023-04-08T20:28:50.850Z,79.54
2023-04-08T20:38:55.346Z,80.07
2023-04-08T20:48:58.551Z,80.71
2023-04-08T20:59:02.155Z,81.29
2023-04-08T21:09:05.405Z,81.39
2023-04-08T21:19:09.485Z,81.67
2023-04-08T21:29:13.034Z,81.75
2023-04-08T21:39:16.278Z,81.85
2023-04-08T21:49:20.172Z,81.98
2023-04-08T21:59:55.647Z,82.02
2023-04-08T22:10:01.703Z,82.31
2023-04-08T22:20:06.710Z,82.54
2023-04-08T22:30:10.788Z,81.78
2023-04-08T22:40:14.245Z,81.27
2023-04-08T22:50:17.968Z,81.21
2023-04-08T23:00:21.449Z,81.21
2023-04-08T23:10:25.885Z,81.23
2023-04-08T23:20:29.104Z,80.65
2023-04-08T23:30:32.590Z,80.52
2023-04-08T23:40:35.908Z,80.43
2023-04-08T23:50:39.415Z,80.54
